Time;durP1;ratioP1;P1;durP2;ratioP2;P2;SDS_P1;SDS_P2;PMS_P1;PMS_P2;Temp;Humidity;BMP_temperature;BMP_pressure;BME280_temperature;BME280_humidity;BME280_pressure;Samples;Min_cycle;Max_cycle;Signal;HPM_P1;HPM_P2
2023/02/17 00:01:13;;;;;;;7.05;6.30;;;8.80;99.90;;;9.74;67.74;98764.41;5228520;28;20193;-80
2023/02/17 00:03:47;;;;;;;7.10;6.43;;;9.00;99.90;;;9.76;66.90;98763.75;5223928;28;20225;-81
2023/02/17 00:06:23;;;;;;;6.78;6.15;;;9.00;99.90;;;9.94;65.60;98761.66;5228811;28;20594;-81
2023/02/17 00:08:56;;;;;;;6.10;5.50;;;9.20;99.90;;;10.00;65.38;98774.00;5227322;28;20264;-80
2023/02/17 00:11:31;;;;;;;6.90;6.25;;;9.30;99.90;;;10.06;65.10;98765.13;5225278;28;20287;-81
2023/02/17 00:14:04;;;;;;;7.88;6.15;;;9.30;99.90;;;10.22;64.19;98762.03;5227469;28;20226;-80
2023/02/17 00:16:37;;;;;;;6.43;5.93;;;9.40;99.90;;;10.25;62.93;98762.25;5226838;28;20225;-79
2023/02/17 00:19:25;;;;;;;6.32;5.82;;;9.50;99.90;;;10.41;62.16;98758.28;5224169;28;20243;-81
2023/02/17 00:22:00;;;;;;;7.28;6.57;;;9.60;99.90;;;10.53;61.90;98756.59;5227540;28;20284;-80
2023/02/17 00:24:37;;;;;;;6.90;6.00;;;9.80;99.90;;;10.33;61.43;98761.19;5226102;28;20216;-78
2023/02/17 00:27:12;;;;;;;6.50;5.72;;;9.70;99.90;;;10.43;61.40;98751.63;5217896;28;20194;-79
2023/02/17 00:29:45;;;;;;;7.20;5.80;;;9.70;99.90;;;10.59;61.30;98751.94;5221126;28;20225;-81
2023/02/17 00:32:18;;;;;;;6.00;5.40;;;9.80;99.90;;;10.71;59.78;98757.94;5221201;28;20233;-81
2023/02/17 00:34:54;;;;;;;6.57;5.90;;;9.90;99.90;;;10.65;60.14;98747.28;5219662;28;20217;-81
2023/02/17 00:37:27;;;;;;;6.00;5.50;;;9.90;99.90;;;10.60;60.18;98743.50;5219666;28;20761;-81
2023/02/17 00:40:00;;;;;;;6.40;5.40;;;9.90;99.90;;;10.57;61.38;98745.81;5222655;28;20189;-81
2023/02/17 00:42:34;;;;;;;6.32;5.82;;;9.90;99.90;;;10.54;61.48;98748.16;5218659;28;20820;-81
2023/02/17 00:45:09;;;;;;;6.20;5.60;;;9.80;99.90;;;10.63;60.84;98748.81;5223926;28;20248;-81
2023/02/17 00:47:42;;;;;;;7.57;5.80;;;9.90;99.90;;;10.58;60.29;98747.59;5224350;28;20291;-81
2023/02/17 00:50:15;;;;;;;6.28;5.68;;;9.90;99.90;;;10.53;60.85;98748.94;5221189;28;20759;-80
2023/02/17 00:52:48;;;;;;;7.78;5.40;;;9.80;99.90;;;10.60;60.47;98751.16;5215977;28;20252;-80
2023/02/17 00:55:21;;;;;;;5.10;4.70;;;9.90;99.90;;;10.56;61.71;98754.28;5223547;28;20252;-81
2023/02/17 00:57:56;;;;;;;5.60;5.05;;;9.90;99.90;;;10.63;61.29;98751.38;5227843;28;20277;-80
2023/02/17 01:00:29;;;;;;;5.63;5.05;;;9.90;99.90;;;10.70;61.16;98748.50;5223428;28;20200;-79
2023/02/17 01:03:02;;;;;;;5.72;5.13;;;10.00;99.90;;;10.68;60.71;98759.38;5224473;28;20197;-81
2023/02/17 01:05:41;;;;;;;5.20;4.70;;;10.00;99.90;;;10.66;60.87;98748.16;5223190;28;20731;-81
2023/02/17 01:08:15;;;;;;;5.50;5.00;;;9.90;99.90;;;10.71;60.91;98757.03;5222369;28;20658;-81
2023/02/17 01:10:49;;;;;;;5.43;5.00;;;9.90;99.90;;;10.82;60.98;98751.03;5222491;28;20690;-80
2023/02/17 01:13:24;;;;;;;4.85;4.45;;;10.00;99.90;;;10.79;60.25;98749.13;5221660;28;20676;-80
2023/02/17 01:15:57;;;;;;;7.80;5.20;;;10.00;99.90;;;10.66;60.52;98753.25;5226117;28;20216;-81
2023/02/17 01:18:30;;;;;;;5.28;4.63;;;10.00;99.90;;;10.69;60.74;98754.34;5224404;28;20205;-81
2023/02/17 01:21:03;;;;;;;6.47;4.85;;;9.90;99.90;;;10.71;61.40;98755.38;5228322;28;20190;-80
2023/02/17 01:23:37;;;;;;;5.45;4.63;;;10.00;99.90;;;10.90;60.27;98744.78;5217271;28;20198;-80
2023/02/17 01:26:14;;;;;;;6.85;4.93;;;10.00;99.90;;;10.91;60.01;98741.44;5222148;28;20255;-80
2023/02/17 01:28:51;;;;;;;6.05;4.38;;;10.10;99.90;;;10.92;59.46;98734.63;5222639;28;20284;-79
2023/02/17 01:31:26;;;;;;;6.15;4.85;;;10.10;99.90;;;11.00;58.89;98734.38;5219967;28;20225;-81
2023/02/17 01:34:03;;;;;;;8.15;4.47;;;10.20;99.90;;;11.06;59.48;98728.81;5215276;28;20638;-79
2023/02/17 01:36:36;;;;;;;5.57;4.45;;;10.20;99.90;;;11.13;59.37;98728.47;5221847;28;20213;-81
2023/02/17 01:39:13;;;;;;;6.95;4.55;;;10.20;99.90;;;11.17;57.90;98724.44;5222186;28;20293;-80
2023/02/17 01:41:46;;;;;;;6.65;4.90;;;10.40;99.90;;;11.17;59.24;98727.00;5222556;28;20289;-81
2023/02/17 01:44:23;;;;;;;5.18;4.68;;;10.30;99.90;;;11.23;57.83;98723.16;5219677;28;20635;-79
2023/02/17 01:46:56;;;;;;;6.30;4.32;;;10.40;99.90;;;11.20;57.68;98712.72;5224306;28;20243;-81
2023/02/17 01:49:34;;;;;;;5.28;4.05;;;10.40;99.90;;;11.38;57.37;98709.63;5223609;28;20201;-80
2023/02/17 01:52:14;;;;;;;6.78;4.53;;;10.60;99.90;;;11.33;57.42;98713.56;5225212;28;20647;-81
2023/02/17 01:54:51;;;;;;;6.05;3.97;;;10.60;99.90;;;11.22;58.32;98711.19;5215266;28;20244;-79
2023/02/17 01:57:30;;;;;;;4.88;4.32;;;10.50;99.90;;;11.27;57.70;98707.25;5225556;28;20225;-80
2023/02/17 02:00:09;;;;;;;4.78;4.30;;;10.50;99.90;;;11.33;57.65;98705.88;5222899;28;20977;-81
2023/02/17 02:02:47;;;;;;;4.85;3.85;;;10.60;99.90;;;11.37;57.57;98701.09;5214228;28;20205;-81
2023/02/17 02:05:22;;;;;;;5.22;4.47;;;10.60;99.90;;;11.20;58.67;98707.63;5225820;28;20603;-81
2023/02/17 02:07:55;;;;;;;5.72;4.80;;;10.50;99.90;;;11.15;58.60;98693.63;5222288;28;20197;-81
2023/02/17 02:10:28;;;;;;;5.30;4.30;;;10.40;99.90;;;11.10;59.26;98700.06;5224340;28;20247;-81
2023/02/17 02:13:01;;;;;;;6.05;4.18;;;10.40;99.90;;;11.05;59.39;98706.56;5225504;28;20670;-82
2023/02/17 02:15:46;;;;;;;6.80;4.43;;;10.30;99.90;;;11.02;59.69;98697.03;5220304;28;20296;-80
2023/02/17 02:18:44;;;;;;;5.20;4.57;;;10.30;99.90;;;11.03;58.71;98691.09;5223295;28;20219;-81
2023/02/17 02:21:52;;;;;;;6.10;4.35;;;10.30;99.90;;;11.10;58.78;98688.97;5224620;28;20196;-80
2023/02/17 02:24:38;;;;;;;4.80;4.40;;;10.30;99.90;;;11.11;59.47;98686.53;5223709;28;20252;-82
2023/02/17 02:27:45;;;;;;;5.75;4.53;;;10.30;99.90;;;11.07;59.00;98688.75;5222762;28;20231;-82
2023/02/17 02:30:50;;;;;;;6.68;4.50;;;10.30;99.90;;;11.00;59.98;98682.34;5221342;28;20658;-81
2023/02/17 02:33:35;;;;;;;4.82;4.32;;;10.20;99.90;;;10.93;59.58;98687.81;5221702;28;20205;-81
2023/02/17 02:36:14;;;;;;;6.40;4.82;;;10.20;99.90;;;11.00;59.34;98677.22;5225872;28;20292;-81
2023/02/17 02:38:53;;;;;;;6.70;4.20;;;10.20;99.90;;;10.92;60.49;98681.81;5225420;28;20322;-80
2023/02/17 02:41:31;;;;;;;4.63;4.20;;;10.20;99.90;;;10.90;60.15;98677.38;5221945;28;20189;-82
2023/02/17 02:44:06;;;;;;;6.00;4.10;;;10.20;99.90;;;10.96;60.75;98677.78;5225872;28;20300;-81
2023/02/17 02:46:39;;;;;;;6.40;4.20;;;10.20;99.90;;;11.10;59.15;98673.63;5222988;28;20288;-82
2023/02/17 02:49:14;;;;;;;4.53;4.13;;;10.20;99.90;;;11.23;59.08;98678.78;5220787;28;20228;-81
2023/02/17 02:51:54;;;;;;;6.40;4.50;;;10.30;99.90;;;11.10;59.25;98671.94;5224325;28;20216;-82
2023/02/17 02:54:43;;;;;;;5.35;4.78;;;10.30;99.90;;;11.11;59.29;98676.28;5225581;28;20356;-80
2023/02/17 02:57:33;;;;;;;7.65;4.95;;;10.30;99.90;;;11.02;59.70;98671.44;5226276;28;20229;-81
2023/02/17 03:00:19;;;;;;;6.15;4.72;;;10.30;99.90;;;11.00;60.37;98684.91;5223313;28;20259;-81
2023/02/17 03:02:58;;;;;;;11.52;4.60;;;10.30;99.90;;;10.97;60.02;98682.13;5215866;28;20323;-82
2023/02/17 03:05:44;;;;;;;5.10;4.60;;;10.20;99.90;;;10.88;60.83;98679.84;5222830;28;20252;-82
2023/02/17 03:08:24;;;;;;;5.13;4.35;;;10.20;99.90;;;10.96;60.57;98665.91;5222723;28;20225;-81
2023/02/17 03:10:57;;;;;;;5.40;4.60;;;10.20;99.90;;;10.88;61.09;98667.03;5221284;28;20779;-80
2023/02/17 03:13:36;;;;;;;6.18;4.68;;;10.10;99.90;;;10.85;61.59;98678.75;5223996;28;20271;-80
2023/02/17 03:16:11;;;;;;;5.28;4.25;;;10.10;99.90;;;10.86;60.88;98672.84;5225426;28;20209;-80
2023/02/17 03:18:44;;;;;;;5.07;4.57;;;10.10;99.90;;;10.89;61.43;98671.38;5223234;28;20211;-82
2023/02/17 03:21:19;;;;;;;5.05;4.15;;;10.10;99.90;;;11.05;59.97;98666.53;5226773;28;20236;-81
2023/02/17 03:23:52;;;;;;;5.63;4.10;;;10.10;99.90;;;10.96;60.68;98670.09;5224378;28;20251;-81
2023/02/17 03:26:25;;;;;;;4.55;4.15;;;10.20;99.90;;;10.90;61.32;98659.47;5220539;28;20233;-81
2023/02/17 03:28:58;;;;;;;7.75;4.93;;;10.10;99.90;;;10.89;62.21;98662.81;5220153;28;20204;-81
2023/02/17 03:31:32;;;;;;;5.35;4.85;;;10.10;99.90;;;10.90;62.08;98654.34;5225568;28;20312;-81
2023/02/17 03:34:06;;;;;;;5.80;5.00;;;10.10;99.90;;;10.87;62.24;98647.34;5221822;28;20225;-81
2023/02/17 03:36:40;;;;;;;6.70;4.43;;;10.00;99.90;;;10.99;61.38;98645.66;5223792;28;20202;-80
2023/02/17 03:39:13;;;;;;;5.68;4.32;;;10.10;99.90;;;10.91;61.60;98646.78;5218192;28;20200;-81
2023/02/17 03:41:49;;;;;;;6.25;4.40;;;10.10;99.90;;;10.83;62.25;98648.81;5221123;28;20235;-82
2023/02/17 03:44:22;;;;;;;5.20;4.70;;;10.00;99.90;;;11.04;60.62;98651.06;5224603;28;20244;-81
2023/02/17 03:46:55;;;;;;;5.47;3.90;;;10.10;99.90;;;11.07;61.39;98647.81;5224397;28;20209;-81
2023/02/17 03:49:28;;;;;;;4.88;4.00;;;10.20;99.90;;;11.04;61.58;98644.28;5226650;28;20263;-81
2023/02/17 03:52:03;;;;;;;6.85;5.07;;;10.20;99.90;;;10.94;61.75;98656.34;5225907;28;21416;-81
2023/02/17 03:54:37;;;;;;;6.18;4.80;;;10.10;99.90;;;10.87;61.95;98652.47;5227258;28;20610;-80
2023/02/17 03:57:10;;;;;;;4.65;4.25;;;10.10;99.90;;;10.85;62.83;98656.59;5225487;28;20284;-81
2023/02/17 03:59:44;;;;;;;4.57;3.97;;;10.10;99.90;;;10.82;63.03;98656.41;5220714;28;20213;-81
2023/02/17 04:02:17;;;;;;;5.80;4.60;;;10.00;99.90;;;10.89;63.34;98648.34;5226619;28;20193;-81
2023/02/17 04:04:50;;;;;;;5.97;4.60;;;10.10;99.90;;;10.86;62.86;98652.38;5217342;28;20793;-81
2023/02/17 04:07:24;;;;;;;5.57;4.25;;;10.00;99.90;;;10.99;63.26;98655.00;5224233;28;20198;-81
2023/02/17 04:09:57;;;;;;;8.00;4.95;;;10.10;99.90;;;10.89;63.01;98653.47;5219679;28;20197;-82
2023/02/17 04:12:31;;;;;;;8.77;4.65;;;10.00;99.90;;;10.94;63.00;98651.22;5224975;28;20225;-79
2023/02/17 04:15:04;;;;;;;6.93;4.68;;;10.00;99.90;;;11.01;63.39;98655.97;5228742;28;20243;-82
2023/02/17 04:17:38;;;;;;;5.88;4.78;;;10.10;99.90;;;10.96;63.51;98654.75;5223527;28;20228;-79
2023/02/17 04:20:12;;;;;;;6.43;4.18;;;10.00;99.90;;;10.87;63.64;98659.25;5225295;28;20651;-81
2023/02/17 04:22:47;;;;;;;6.80;4.50;;;10.00;99.90;;;10.85;64.37;98656.59;5227299;28;20726;-81
2023/02/17 04:25:20;;;;;;;6.13;4.72;;;10.00;99.90;;;10.83;65.19;98659.03;5227971;28;20626;-81
2023/02/17 04:27:53;;;;;;;4.65;4.15;;;10.00;99.90;;;10.82;65.33;98664.94;5230577;28;20236;-81
2023/02/17 04:30:26;;;;;;;5.63;4.72;;;10.00;99.90;;;10.85;65.02;98658.28;5225079;28;20197;-81
2023/02/17 04:33:00;;;;;;;5.22;4.72;;;10.00;99.90;;;10.86;64.96;98667.72;5228105;28;20232;-82
2023/02/17 04:35:33;;;;;;;7.97;5.03;;;10.00;99.90;;;10.79;65.18;98663.88;5220865;28;20225;-82
2023/02/17 04:38:09;;;;;;;7.45;4.72;;;10.00;99.90;;;10.81;66.08;98660.59;5226750;28;20210;-81
2023/02/17 04:40:43;;;;;;;6.22;4.85;;;10.00;99.90;;;10.89;65.39;98666.25;5228178;28;20211;-81
2023/02/17 04:43:16;;;;;;;6.40;4.90;;;10.00;99.90;;;10.80;66.62;98666.50;5220702;28;20296;-80
2023/02/17 04:45:49;;;;;;;7.47;4.80;;;10.00;99.90;;;10.87;66.52;98664.38;5227776;28;20217;-82
2023/02/17 04:48:22;;;;;;;6.40;5.20;;;10.00;99.90;;;10.91;65.42;98667.25;5218171;28;20202;-80
2023/02/17 04:50:55;;;;;;;5.28;4.50;;;10.10;99.90;;;11.09;64.89;98661.63;5225262;28;20277;-81
2023/02/17 04:53:30;;;;;;;5.35;4.70;;;10.30;99.90;;;11.09;65.50;98657.38;5228975;28;20221;-81
2023/02/17 04:56:03;;;;;;;6.13;4.40;;;10.20;99.90;;;11.02;66.18;98662.88;5229465;28;20197;-81
2023/02/17 04:58:37;;;;;;;5.82;4.90;;;10.20;99.90;;;10.98;66.17;98663.44;5227765;28;20272;-80
2023/02/17 05:01:10;;;;;;;4.95;4.38;;;10.10;99.90;;;10.91;65.42;98661.25;5223056;28;20241;-81
2023/02/17 05:03:43;;;;;;;6.35;4.70;;;10.10;99.90;;;11.06;65.09;98649.50;5222565;28;20819;-81
2023/02/17 05:06:16;;;;;;;4.82;4.43;;;10.20;99.90;;;11.27;64.78;98653.53;5226197;28;20248;-81
2023/02/17 05:08:52;;;;;;;6.68;4.72;;;10.30;99.90;;;11.18;65.33;98647.75;5223653;28;20503;-81
2023/02/17 05:11:25;;;;;;;7.95;4.90;;;10.30;99.90;;;11.05;65.51;98640.94;5224223;28;20625;-80
2023/02/17 05:13:58;;;;;;;6.22;5.00;;;10.20;99.90;;;10.99;66.84;98644.78;5222690;28;20269;-79
2023/02/17 05:16:31;;;;;;;5.38;4.88;;;10.10;99.90;;;11.01;65.56;98643.19;5226557;28;20205;-81
2023/02/17 05:19:05;;;;;;;5.38;4.82;;;10.10;99.90;;;10.97;66.08;98642.09;5221533;28;20250;-81
2023/02/17 05:21:38;;;;;;;4.63;4.15;;;10.20;99.90;;;10.87;66.20;98644.78;5227662;28;20197;-80
2023/02/17 05:24:12;;;;;;;4.88;4.43;;;10.10;99.90;;;10.82;66.80;98648.72;5223272;28;20209;-81
2023/02/17 05:26:46;;;;;;;4.70;4.30;;;10.00;99.90;;;10.75;67.71;98642.28;5227734;28;20224;-78
2023/02/17 05:29:19;;;;;;;6.07;4.40;;;10.00;99.90;;;10.77;67.53;98656.06;5220445;28;20206;-79
2023/02/17 05:31:52;;;;;;;5.10;4.60;;;10.00;99.90;;;10.76;67.53;98645.75;5225400;28;20292;-82
2023/02/17 05:34:25;;;;;;;8.10;5.47;;;10.00;99.90;;;10.71;67.00;98647.09;5222624;28;20221;-81
2023/02/17 05:36:58;;;;;;;5.97;4.85;;;9.90;99.90;;;10.71;67.16;98650.53;5227092;28;20227;-80
2023/02/17 05:39:33;;;;;;;6.07;4.85;;;10.00;99.90;;;10.73;67.98;98648.97;5225913;28;20228;-81
2023/02/17 05:42:06;;;;;;;5.00;4.47;;;10.00;99.90;;;10.75;67.90;98654.19;5224662;28;20700;-81
2023/02/17 05:44:39;;;;;;;5.45;4.95;;;10.00;99.90;;;10.79;66.95;98644.28;5222856;28;20217;-80
2023/02/17 05:47:12;;;;;;;5.63;4.90;;;10.00;99.90;;;10.76;68.32;98651.75;5221026;28;20260;-81
2023/02/17 05:49:45;;;;;;;5.70;4.80;;;10.00;99.90;;;10.75;68.29;98657.63;5219821;28;20205;-80
2023/02/17 05:52:18;;;;;;;6.30;5.10;;;10.00;99.90;;;10.75;68.28;98655.06;5222611;28;20260;-80
2023/02/17 05:54:53;;;;;;;5.22;4.70;;;10.00;99.90;;;10.76;68.19;98666.22;5222462;28;20328;-82
2023/02/17 05:57:26;;;;;;;5.13;4.28;;;10.00;99.90;;;10.71;68.04;98658.22;5221829;28;20195;-82
2023/02/17 05:59:59;;;;;;;5.30;4.50;;;10.00;99.90;;;10.66;69.08;98659.56;5222839;28;20215;-83
2023/02/17 06:02:32;;;;;;;5.90;4.43;;;10.00;99.90;;;10.71;69.12;98668.44;5215829;28;20290;-82
2023/02/17 06:05:07;;;;;;;6.82;4.88;;;10.00;99.90;;;10.70;68.73;98670.88;5215046;28;20253;-83
2023/02/17 06:07:40;;;;;;;5.25;4.70;;;9.90;99.90;;;10.79;68.06;98674.09;5228489;28;20201;-82
2023/02/17 06:10:15;;;;;;;5.90;4.85;;;10.00;99.90;;;10.75;69.13;98672.97;5221811;28;20209;-83
2023/02/17 06:12:48;;;;;;;5.38;4.93;;;9.90;99.90;;;10.72;69.48;98680.44;5222528;28;20695;-83
2023/02/17 06:15:21;;;;;;;5.03;4.53;;;10.00;99.90;;;10.71;69.75;98677.78;5224777;28;20225;-83
2023/02/17 06:17:54;;;;;;;5.22;4.72;;;9.90;99.90;;;10.72;69.86;98676.97;5221903;28;20208;-81
2023/02/17 06:20:28;;;;;;;5.70;4.50;;;9.90;99.90;;;10.78;68.80;98678.28;5223353;28;20238;-83
2023/02/17 06:23:01;;;;;;;5.40;4.90;;;10.00;99.90;;;10.74;69.83;98678.88;5215701;28;20211;-83
2023/02/17 06:25:36;;;;;;;4.65;4.25;;;9.90;99.90;;;10.76;70.54;98679.88;5222710;28;20725;-81
2023/02/17 06:28:09;;;;;;;5.07;4.13;;;10.00;99.90;;;10.75;70.50;98680.63;5224376;28;20258;-83
2023/02/17 06:30:42;;;;;;;4.78;4.25;;;10.00;99.90;;;10.77;70.89;98684.19;5215961;28;20296;-83
2023/02/17 06:33:15;;;;;;;5.10;4.32;;;9.90;99.90;;;10.75;70.09;98684.88;5218253;28;20670;-83
2023/02/17 06:35:50;;;;;;;4.78;4.00;;;9.90;99.90;;;10.73;70.83;98687.34;5221699;28;20221;-83
2023/02/17 06:38:23;;;;;;;5.97;4.80;;;9.90;99.90;;;10.73;71.34;98684.78;5218123;28;20239;-83
2023/02/17 06:40:57;;;;;;;5.03;4.53;;;9.90;99.90;;;10.70;70.75;98691.31;5220591;28;20197;-83
2023/02/17 06:43:31;;;;;;;6.15;4.88;;;9.90;99.90;;;10.78;70.36;98695.31;5221407;28;20235;-83
2023/02/17 06:46:04;;;;;;;4.82;4.43;;;9.90;99.90;;;10.76;70.50;98696.91;5220159;28;20228;-84
2023/02/17 06:48:38;;;;;;;5.43;4.47;;;9.90;99.90;;;10.74;71.53;98694.22;5221254;28;20216;-83
2023/02/17 06:51:12;;;;;;;5.20;4.43;;;9.90;99.90;;;10.73;71.54;98691.53;5224618;28;20205;-83
2023/02/17 06:53:45;;;;;;;4.78;4.38;;;9.90;99.90;;;10.74;71.70;98694.22;5216823;28;20233;-82
2023/02/17 06:56:20;;;;;;;5.38;4.28;;;10.00;99.90;;;10.74;71.79;98694.22;5220677;28;20215;-82
2023/02/17 06:58:53;;;;;;;4.40;4.10;;;9.90;99.90;;;10.75;71.97;98695.97;5217434;28;20251;-81
2023/02/17 07:01:26;;;;;;;4.65;3.92;;;9.90;99.90;;;10.76;71.63;98700.34;5221134;28;20672;-82
2023/02/17 07:04:00;;;;;;;4.80;4.40;;;9.90;99.90;;;10.76;73.17;98697.78;5217735;28;20304;-82
2023/02/17 07:06:33;;;;;;;6.40;4.43;;;9.90;99.90;;;10.81;72.21;98696.41;5221118;28;20268;-82
2023/02/17 07:09:06;;;;;;;6.78;4.13;;;9.90;99.90;;;10.79;72.44;98700.53;5224984;28;20215;-82
2023/02/17 07:11:43;;;;;;;5.70;4.47;;;9.90;99.90;;;10.81;72.96;98701.50;5224408;28;20201;-82
2023/02/17 07:14:17;;;;;;;5.72;4.47;;;10.00;99.90;;;10.78;72.73;98692.75;5226874;28;20258;-82
2023/02/17 07:16:50;;;;;;;5.20;3.72;;;10.00;99.90;;;10.79;72.89;98695.44;5216683;28;20306;-82
2023/02/17 07:19:23;;;;;;;4.80;4.40;;;10.00;99.90;;;10.86;72.97;98701.84;5217188;28;20239;-82
2023/02/17 07:21:57;;;;;;;4.10;3.58;;;10.10;99.90;;;10.89;72.38;98701.19;5223246;28;20205;-81
2023/02/17 07:24:30;;;;;;;5.82;4.10;;;10.10;99.90;;;10.92;72.63;98698.81;5223630;28;20300;-81
2023/02/17 07:27:07;;;;;;;4.50;4.05;;;10.10;99.90;;;10.99;72.47;98701.03;5222544;28;20736;-81
2023/02/17 07:29:42;;;;;;;4.90;4.07;;;10.10;99.90;;;10.99;72.77;98706.16;5223914;28;20618;-81
2023/02/17 07:32:16;;;;;;;4.50;4.10;;;10.20;99.90;;;11.00;72.01;98706.25;5225587;28;20300;-82
2023/02/17 07:34:49;;;;;;;4.55;4.15;;;10.20;99.90;;;10.94;72.47;98712.63;5233168;28;20229;-81
2023/02/17 07:37:22;;;;;;;6.43;4.18;;;10.20;99.90;;;10.99;71.97;98706.16;5234068;28;20261;-82
2023/02/17 07:39:56;;;;;;;4.53;4.13;;;10.10;99.90;;;11.08;72.34;98714.47;5224811;28;20724;-80
2023/02/17 07:42:30;;;;;;;4.82;4.13;;;10.20;99.90;;;11.10;71.55;98710.31;5224024;28;20212;-81
2023/02/17 07:45:04;;;;;;;4.40;4.00;;;10.20;99.90;;;11.07;72.27;98693.88;5217456;28;20514;-80
2023/02/17 07:47:37;;;;;;;5.57;4.43;;;10.20;99.90;;;11.12;72.00;98703.63;5218537;28;20292;-82
2023/02/17 07:50:11;;;;;;;4.57;4.15;;;10.20;99.90;;;11.09;71.79;98706.00;5221745;28;20212;-81
2023/02/17 07:52:44;;;;;;;5.95;4.43;;;10.30;99.90;;;11.08;71.97;98701.66;5219576;28;20206;-81
2023/02/17 07:55:18;;;;;;;5.20;4.65;;;10.20;99.90;;;11.11;72.97;98704.44;5218633;28;20316;-82
2023/02/17 07:57:53;;;;;;;4.85;4.45;;;10.20;99.90;;;11.10;72.25;98701.75;5224129;28;20197;-81
2023/02/17 08:00:26;;;;;;;5.72;4.93;;;10.20;99.90;;;11.23;71.91;98718.06;5218269;28;20707;-83
2023/02/17 08:03:00;;;;;;;5.90;4.30;;;10.30;99.90;;;11.32;71.64;98715.22;5216114;28;20263;-80
2023/02/17 08:05:33;;;;;;;6.40;4.20;;;10.30;99.90;;;11.20;72.11;98727.19;5223748;28;20343;-81
2023/02/17 08:13:55;;;;;;;5.78;4.95;;;10.50;99.90;;;11.35;71.32;98718.00;5198302;28;20271;-82
2023/02/17 08:16:28;;;;;;;5.38;4.88;;;10.50;99.90;;;11.39;70.58;98714.88;5217267;28;20200;-82
2023/02/17 08:19:02;;;;;;;5.95;4.22;;;10.50;99.90;;;11.47;70.52;98721.41;5219279;28;20353;-82
2023/02/17 08:21:35;;;;;;;5.45;4.20;;;10.50;99.90;;;11.59;69.55;98716.22;5221687;28;20212;-81
2023/02/17 08:24:08;;;;;;;4.80;3.95;;;10.60;99.90;;;11.75;68.98;98714.66;5218383;28;20231;-82
2023/02/17 08:26:42;;;;;;;5.00;4.30;;;10.70;99.90;;;11.72;69.19;98711.09;5220046;28;20209;-82
2023/02/17 08:29:19;;;;;;;6.57;4.38;;;10.80;99.90;;;11.69;69.37;98716.03;5223245;28;20221;-82
2023/02/17 08:31:53;;;;;;;7.90;4.35;;;10.80;99.90;;;11.75;69.31;98709.53;5215704;28;20197;-81
2023/02/17 08:34:27;;;;;;;5.15;3.92;;;10.90;99.90;;;11.90;69.38;98710.56;5214612;28;20314;-81
2023/02/17 08:37:01;;;;;;;4.78;4.07;;;11.00;99.90;;;11.94;69.79;98712.56;5221915;28;20212;-81
2023/02/17 08:39:35;;;;;;;4.47;4.07;;;11.00;99.90;;;12.02;69.11;98706.28;5214411;28;20225;-80
2023/02/17 08:42:10;;;;;;;4.97;3.85;;;11.00;99.90;;;11.94;69.07;98704.88;5221723;28;20239;-81
2023/02/17 08:44:45;;;;;;;5.68;3.67;;;11.10;99.90;;;12.02;69.56;98716.53;5224036;28;20251;-82
2023/02/17 08:47:18;;;;;;;4.97;4.05;;;11.20;99.90;;;11.94;69.70;98722.81;5217442;28;20682;-82
2023/02/17 08:49:51;;;;;;;4.75;4.35;;;11.20;99.90;;;11.96;69.93;98708.44;5222241;28;20240;-81
2023/02/17 08:52:24;;;;;;;4.30;3.80;;;11.10;99.90;;;12.01;70.50;98713.84;5217217;28;20635;-82
2023/02/17 08:54:58;;;;;;;5.28;3.92;;;11.10;99.90;;;11.95;70.62;98719.44;5219801;28;20274;-81
2023/02/17 08:57:31;;;;;;;4.72;4.13;;;11.10;99.90;;;12.05;70.66;98720.97;5220448;28;20290;-81
2023/02/17 09:00:09;;;;;;;3.72;3.42;;;11.10;99.90;;;12.21;69.67;98717.69;5222745;28;20279;-81
2023/02/17 09:02:43;;;;;;;4.45;3.55;;;11.20;99.90;;;12.13;70.18;98714.63;5222637;28;20185;-81
2023/02/17 09:05:17;;;;;;;4.85;3.70;;;11.30;99.90;;;12.21;70.32;98717.69;5219597;28;20228;-81
2023/02/17 09:07:50;;;;;;;4.43;3.60;;;11.40;99.90;;;12.33;70.13;98718.47;5221594;28;20233;-82
2023/02/17 09:10:23;;;;;;;4.03;3.63;;;11.40;99.90;;;12.29;70.10;98711.38;5218177;28;20201;-82
2023/02/17 09:12:57;;;;;;;5.05;3.38;;;11.40;99.90;;;12.39;70.24;98713.78;5209776;28;20590;-81
2023/02/17 09:15:32;;;;;;;3.67;3.38;;;11.60;99.90;;;12.28;71.47;98725.00;5218779;28;20237;-80
2023/02/17 09:18:05;;;;;;;5.55;3.80;;;11.50;99.90;;;12.35;71.22;98727.16;5216160;28;20223;-81
2023/02/17 09:20:39;;;;;;;3.83;3.47;;;11.50;99.90;;;12.29;71.84;98731.91;5219299;28;20650;-81
2023/02/17 09:23:12;;;;;;;3.95;3.55;;;11.50;99.90;;;12.24;71.99;98741.84;5215474;28;20212;-82
2023/02/17 09:25:45;;;;;;;3.50;3.20;;;11.50;99.90;;;12.44;72.15;98739.69;5219827;28;20233;-81
2023/02/17 09:28:19;;;;;;;3.50;3.30;;;11.60;99.90;;;12.44;72.17;98732.88;5222829;28;20201;-81
2023/02/17 09:30:54;;;;;;;4.18;3.40;;;11.50;99.90;;;12.60;72.08;98730.50;5215315;28;20204;-81
2023/02/17 09:33:27;;;;;;;5.45;3.80;;;11.60;99.90;;;12.38;72.81;98727.34;5220253;28;20575;-81
2023/02/17 09:36:00;;;;;;;3.88;3.45;;;11.60;99.90;;;12.31;73.81;98731.22;5215732;28;20291;-81
2023/02/17 09:38:34;;;;;;;4.28;3.72;;;11.50;99.90;;;12.50;72.78;98728.13;5217802;28;20204;-82
2023/02/17 09:41:17;;;;;;;4.32;3.30;;;11.60;99.90;;;12.49;73.23;98735.75;5220878;28;20661;-82
2023/02/17 09:43:51;;;;;;;4.90;3.05;;;11.60;99.90;;;12.42;73.31;98747.28;5217788;28;20295;-81
2023/02/17 09:46:30;;;;;;;3.35;3.10;;;11.60;99.90;;;12.48;73.52;98751.94;5217740;28;20296;-83
2023/02/17 09:49:09;;;;;;;3.20;2.90;;;11.60;99.90;;;12.38;74.42;98753.00;5220565;28;20233;-81
2023/02/17 09:51:45;;;;;;;2.97;2.58;;;11.50;99.90;;;12.22;76.61;98760.47;5218557;28;20282;-81
2023/02/17 09:54:27;;;;;;;3.58;3.38;;;11.50;99.90;;;12.26;77.21;98747.09;5221864;28;20229;-81
2023/02/17 09:57:03;;;;;;;3.58;3.30;;;11.50;99.90;;;12.37;77.58;98756.34;5219002;28;20209;-82
2023/02/17 09:59:42;;;;;;;3.92;3.42;;;11.50;99.90;;;12.30;77.79;98756.72;5221137;28;20671;-80
2023/02/17 10:02:25;;;;;;;3.08;2.80;;;11.50;99.90;;;12.45;76.98;98755.19;5209886;28;20591;-82
2023/02/17 10:05:06;;;;;;;3.60;3.00;;;11.50;99.90;;;12.17;78.15;98757.63;5222082;28;20221;-80
2023/02/17 10:07:46;;;;;;;3.78;3.17;;;11.40;99.90;;;12.33;77.62;98760.41;5221329;28;20204;-81
2023/02/17 10:10:22;;;;;;;4.40;3.33;;;11.50;99.90;;;12.28;78.16;98764.34;5221156;28;20202;-83
2023/02/17 10:12:58;;;;;;;3.28;2.97;;;11.50;99.90;;;12.39;77.41;98765.94;5213034;28;20239;-82
2023/02/17 10:15:39;;;;;;;5.35;3.30;;;11.40;99.90;;;12.26;78.37;98765.03;5212581;28;20264;-83
2023/02/17 10:18:20;;;;;;;3.22;3.00;;;11.40;99.90;;;12.34;78.15;98761.28;5216499;28;20671;-81
2023/02/17 10:21:00;;;;;;;3.60;3.25;;;11.40;99.90;;;12.29;78.46;98760.97;5215689;28;20208;-82
2023/02/17 10:23:35;;;;;;;3.95;3.00;;;11.40;99.90;;;12.37;78.09;98756.34;5217679;28;20260;-79
2023/02/17 10:26:22;;;;;;;3.05;2.75;;;11.40;99.90;;;12.52;77.53;98752.19;5222285;28;20197;-81
2023/02/17 10:29:04;;;;;;;3.33;2.97;;;11.50;99.90;;;12.57;76.74;98760.19;5222798;28;20288;-81
2023/02/17 10:31:45;;;;;;;3.40;3.17;;;11.70;99.90;;;12.56;77.63;98756.75;5220625;28;20227;-82
2023/02/17 10:34:34;;;;;;;4.07;3.25;;;11.60;99.90;;;12.65;76.80;98763.22;5222133;28;20235;-81
2023/02/17 10:37:17;;;;;;;3.60;3.30;;;11.60;99.90;;;12.69;76.70;98755.84;5222135;28;20209;-82
2023/02/17 10:39:53;;;;;;;2.90;2.70;;;11.80;99.90;;;12.78;75.15;98755.53;5212763;28;20272;-82
2023/02/17 10:42:30;;;;;;;3.35;3.05;;;11.90;99.90;;;12.75;75.59;98765.59;5219296;28;20328;-82
2023/02/17 10:45:11;;;;;;;4.78;2.88;;;11.90;99.90;;;12.54;76.86;98760.88;5219695;28;20243;-81
2023/02/17 10:47:44;;;;;;;3.88;3.42;;;11.80;99.90;;;12.71;77.25;98758.50;5219560;28;20232;-83
2023/02/17 10:50:22;;;;;;;5.78;2.83;;;11.70;99.90;;;12.87;75.52;98752.66;5216257;28;20205;-82
2023/02/17 10:52:56;;;;;;;3.70;3.20;;;12.00;99.90;;;12.78;76.38;98756.41;5219696;28;20206;-82
2023/02/17 10:55:36;;;;;;;5.78;3.30;;;12.00;99.90;;;12.82;76.01;98749.81;5219636;28;20225;-82
2023/02/17 10:58:17;;;;;;;3.10;2.63;;;11.90;99.90;;;13.02;75.94;98744.25;5221171;28;20204;-82
2023/02/17 11:00:56;;;;;;;3.20;2.85;;;12.10;99.90;;;12.97;75.35;98740.50;5216035;28;20203;-82